createdAt,value
2022-11-24T00:01:26.492Z,9.60
2022-11-24T00:04:11.904Z,9.60
2022-11-24T00:06:38.572Z,9.60
2022-11-24T00:09:06.049Z,9.60
2022-11-24T00:11:35.421Z,9.60
2022-11-24T00:14:02.719Z,9.60
2022-11-24T00:16:32.171Z,9.60
2022-11-24T00:19:00.432Z,9.60
2022-11-24T00:21:28.971Z,9.60
2022-11-24T00:23:55.818Z,9.60
2022-11-24T00:26:24.819Z,9.60
2022-11-24T00:28:55.082Z,9.60
2022-11-24T00:31:30.737Z,9.60
2022-11-24T00:33:59.875Z,9.60
2022-11-24T00:36:30.617Z,9.60
2022-11-24T00:38:59.968Z,9.60
2022-11-24T00:41:28.026Z,9.60
2022-11-24T00:43:55.390Z,9.60
2022-11-24T00:46:25.302Z,9.60
2022-11-24T00:48:53.689Z,9.60
2022-11-24T00:51:22.086Z,9.60
2022-11-24T00:53:48.858Z,9.50
2022-11-24T00:56:15.969Z,9.60
2022-11-24T00:58:42.602Z,9.60
2022-11-24T01:01:19.357Z,9.50
2022-11-24T01:03:49.297Z,9.50
2022-11-24T01:06:25.217Z,9.60
2022-11-24T01:08:52.566Z,9.60
2022-11-24T01:11:20.138Z,9.50
2022-11-24T01:13:49.606Z,9.50
2022-11-24T01:16:33.025Z,9.50
2022-11-24T01:19:00.962Z,9.50
2022-11-24T01:21:27.870Z,9.50
2022-11-24T01:23:54.566Z,9.50
2022-11-24T01:26:22.640Z,9.60
2022-11-24T01:28:54.527Z,9.50
2022-11-24T01:31:21.484Z,9.50
2022-11-24T01:33:48.340Z,9.60
2022-11-24T01:36:15.060Z,9.50
2022-11-24T01:38:41.790Z,9.50
2022-11-24T01:41:15.812Z,9.50
2022-11-24T01:43:44.245Z,9.60
2022-11-24T01:46:19.696Z,9.50
2022-11-24T01:48:58.153Z,9.60
2022-11-24T01:51:28.391Z,9.60
2022-11-24T01:54:05.986Z,9.60
2022-11-24T01:56:34.824Z,9.60
2022-11-24T01:59:04.807Z,9.60
2022-11-24T02:01:32.193Z,9.60
2022-11-24T02:04:01.457Z,9.60
2022-11-24T02:06:31.600Z,9.70
2022-11-24T02:09:22.820Z,9.60
2022-11-24T02:11:49.599Z,9.70
2022-11-24T02:14:18.620Z,9.70
2022-11-24T02:16:49.863Z,9.70
2022-11-24T02:19:30.316Z,9.70
2022-11-24T02:21:56.955Z,9.70
2022-11-24T02:24:39.919Z,9.70
2022-11-24T02:27:06.664Z,9.70
2022-11-24T02:29:33.602Z,9.70
2022-11-24T02:32:04.682Z,9.70
2022-11-24T02:34:31.497Z,9.70
2022-11-24T02:36:58.317Z,9.80
2022-11-24T02:39:24.974Z,9.80
2022-11-24T02:42:03.018Z,9.80
2022-11-24T02:44:35.746Z,9.80
2022-11-24T02:47:12.867Z,9.80
2022-11-24T02:49:39.607Z,9.90
2022-11-24T02:52:07.563Z,9.90
2022-11-24T02:54:34.802Z,9.90
2022-11-24T02:57:01.855Z,9.90
2022-11-24T02:59:28.723Z,9.90
2022-11-24T03:01:55.423Z,9.90
2022-11-24T03:04:22.122Z,9.90
2022-11-24T03:06:48.975Z,9.90
2022-11-24T03:09:16.106Z,9.90
2022-11-24T03:11:42.815Z,9.90
2022-11-24T03:14:09.614Z,9.90
2022-11-24T03:16:36.459Z,10.00
2022-11-24T03:19:03.557Z,10.00
2022-11-24T03:21:30.412Z,9.90
2022-11-24T03:23:57.077Z,10.00
2022-11-24T03:26:26.145Z,10.00
2022-11-24T03:28:57.146Z,10.00
2022-11-24T03:31:24.492Z,10.00
2022-11-24T03:33:51.428Z,10.00
2022-11-24T03:36:18.436Z,10.00
2022-11-24T03:38:45.325Z,10.10
2022-11-24T03:41:12.072Z,10.00
2022-11-24T03:43:43.433Z,10.00
2022-11-24T03:46:11.220Z,10.10
2022-11-24T03:48:37.925Z,10.00
2022-11-24T03:51:04.921Z,10.10
2022-11-24T03:53:33.600Z,10.10
2022-11-24T03:56:01.000Z,10.10
2022-11-24T03:58:27.711Z,10.10
2022-11-24T04:00:54.906Z,10.10
2022-11-24T04:03:22.279Z,10.10
2022-11-24T04:05:49.380Z,10.10
2022-11-24T04:08:16.686Z,10.10
2022-11-24T04:10:43.762Z,10.10
2022-11-24T04:13:14.278Z,10.10
2022-11-24T04:15:42.173Z,10.20
2022-11-24T04:18:10.013Z,10.20
2022-11-24T04:20:37.299Z,10.20
2022-11-24T04:23:04.524Z,10.20
2022-11-24T04:25:31.169Z,10.20
2022-11-24T04:27:58.335Z,10.20
2022-11-24T04:30:26.491Z,10.20
2022-11-24T04:32:53.321Z,10.20
2022-11-24T04:35:20.271Z,10.20
2022-11-24T04:37:47.165Z,10.20
2022-11-24T04:40:14.863Z,10.20
2022-11-24T04:42:41.622Z,10.20
2022-11-24T04:45:09.034Z,10.20
2022-11-24T04:47:35.639Z,10.20
2022-11-24T04:50:02.397Z,10.20
2022-11-24T04:52:30.115Z,10.20
2022-11-24T04:54:56.753Z,10.20
2022-11-24T04:57:25.815Z,10.20
2022-11-24T04:59:53.591Z,10.20
2022-11-24T05:02:20.888Z,10.20
2022-11-24T05:04:47.784Z,10.20
2022-11-24T05:07:18.694Z,10.20
2022-11-24T05:10:05.387Z,10.20
2022-11-24T05:12:32.112Z,10.20
2022-11-24T05:14:59.686Z,10.20
2022-11-24T05:17:35.579Z,10.20
2022-11-24T05:20:02.621Z,10.20
2022-11-24T05:22:30.043Z,10.20
2022-11-24T05:24:56.626Z,10.20
2022-11-24T05:27:23.744Z,10.20
2022-11-24T05:29:50.377Z,10.20
2022-11-24T05:32:17.084Z,10.20
2022-11-24T05:34:43.822Z,10.20
2022-11-24T05:37:10.432Z,10.20
2022-11-24T05:39:37.209Z,10.20
2022-11-24T05:42:25.896Z,10.20
2022-11-24T05:44:53.371Z,10.20
2022-11-24T05:47:21.098Z,10.20
2022-11-24T05:49:48.002Z,10.20
2022-11-24T05:52:15.325Z,10.20
2022-11-24T05:54:42.040Z,10.20
2022-11-24T05:57:09.046Z,10.20
2022-11-24T05:59:35.843Z,10.20
2022-11-24T06:02:02.970Z,10.20
2022-11-24T06:04:29.829Z,10.20
2022-11-24T06:06:56.430Z,10.20
2022-11-24T06:09:23.219Z,10.20
2022-11-24T06:11:50.168Z,10.20
2022-11-24T06:14:16.941Z,10.20
2022-11-24T06:16:43.647Z,10.20
2022-11-24T06:19:11.370Z,10.20
2022-11-24T06:21:38.187Z,10.20
2022-11-24T06:24:05.503Z,10.20
2022-11-24T06:26:32.315Z,10.20
2022-11-24T06:28:59.012Z,10.20
2022-11-24T06:31:25.762Z,10.20
2022-11-24T06:33:53.191Z,10.20
2022-11-24T06:36:20.367Z,10.20
2022-11-24T06:38:47.103Z,10.20
2022-11-24T06:41:15.807Z,10.20
2022-11-24T06:43:43.308Z,10.10
2022-11-24T06:46:10.848Z,10.10
2022-11-24T06:48:38.001Z,10.10
2022-11-24T06:51:07.652Z,10.10
2022-11-24T06:53:38.783Z,10.10
2022-11-24T06:56:13.807Z,10.10
2022-11-24T06:58:44.302Z,10.10
2022-11-24T07:01:17.585Z,10.10
2022-11-24T07:03:44.854Z,10.10
2022-11-24T07:06:11.503Z,10.10
2022-11-24T07:08:38.188Z,10.10
2022-11-24T07:11:06.777Z,10.00
2022-11-24T07:13:34.166Z,10.00
2022-11-24T07:16:09.593Z,10.10
2022-11-24T07:18:36.238Z,10.10
2022-11-24T07:21:05.093Z,10.00
2022-11-24T07:23:31.655Z,10.00
2022-11-24T07:26:03.690Z,10.00
2022-11-24T07:28:34.064Z,10.00
2022-11-24T07:31:09.284Z,10.00
2022-11-24T07:33:36.556Z,10.00
2022-11-24T07:36:05.203Z,10.00
2022-11-24T07:38:32.253Z,10.00
2022-11-24T07:41:07.005Z,10.00
2022-11-24T07:43:34.539Z,10.10
2022-11-24T07:46:01.466Z,10.00
2022-11-24T07:48:28.416Z,10.00
2022-11-24T07:50:56.260Z,10.00
2022-11-24T07:53:23.259Z,10.00
2022-11-24T07:55:58.143Z,10.00
2022-11-24T07:58:27.689Z,10.00
2022-11-24T08:00:58.717Z,10.00
2022-11-24T08:03:25.625Z,10.00
2022-11-24T08:06:22.757Z,9.90
2022-11-24T08:08:47.337Z,9.90
2022-11-24T08:11:16.592Z,9.90
2022-11-24T08:13:43.918Z,9.90
2022-11-24T08:16:12.785Z,9.90
2022-11-24T08:18:39.731Z,9.90
2022-11-24T08:21:07.276Z,9.90
2022-11-24T08:23:34.267Z,9.90
2022-11-24T08:26:05.772Z,9.90
2022-11-24T08:28:33.260Z,9.90
2022-11-24T08:31:04.882Z,9.90
2022-11-24T08:33:31.890Z,9.90
2022-11-24T08:36:06.620Z,9.90
2022-11-24T08:38:33.182Z,9.90
2022-11-24T08:41:04.437Z,9.90
2022-11-24T08:43:31.382Z,9.80
2022-11-24T08:46:03.497Z,9.90
2022-11-24T08:48:30.928Z,9.80
2022-11-24T08:50:58.267Z,9.80
2022-11-24T08:53:25.590Z,9.90
2022-11-24T08:55:52.310Z,9.90
2022-11-24T08:58:18.951Z,9.90
2022-11-24T09:00:45.553Z,9.90
2022-11-24T09:03:12.492Z,9.90
2022-11-24T09:05:54.455Z,9.90
2022-11-24T09:08:21.191Z,9.90
2022-11-24T09:10:48.097Z,9.90
2022-11-24T09:13:14.738Z,9.90
2022-11-24T09:15:41.331Z,9.90
2022-11-24T09:18:08.040Z,9.90
2022-11-24T09:20:34.792Z,9.90
2022-11-24T09:23:01.427Z,9.90
2022-11-24T09:25:28.596Z,9.90
2022-11-24T09:27:56.317Z,10.00
2022-11-24T09:30:23.312Z,10.00
2022-11-24T09:32:50.101Z,10.00
2022-11-24T09:35:16.873Z,10.00
2022-11-24T09:37:45.160Z,10.10
2022-11-24T09:40:16.022Z,10.10
2022-11-24T09:43:12.461Z,10.10
2022-11-24T09:46:05.663Z,10.20
2022-11-24T09:48:40.871Z,10.20
2022-11-24T09:51:12.723Z,10.20
2022-11-24T09:53:48.603Z,10.20
2022-11-24T09:56:22.151Z,10.20
2022-11-24T09:58:59.347Z,10.30
2022-11-24T10:01:30.456Z,10.40
2022-11-24T10:04:02.595Z,10.40
2022-11-24T10:06:47.955Z,10.40
2022-11-24T10:09:49.611Z,10.50
2022-11-24T10:12:22.646Z,10.60
2022-11-24T10:15:04.655Z,10.60
2022-11-24T10:18:04.814Z,10.60
2022-11-24T10:20:34.429Z,10.70
2022-11-24T10:23:25.213Z,10.70
2022-11-24T10:25:56.335Z,10.80
2022-11-24T10:28:29.510Z,10.80
2022-11-24T10:31:21.233Z,10.90
2022-11-24T10:33:48.188Z,10.90
2022-11-24T10:36:36.135Z,11.00
2022-11-24T10:39:12.651Z,11.10
2022-11-24T10:41:46.914Z,11.10
2022-11-24T10:44:14.982Z,11.20
2022-11-24T10:46:42.291Z,11.20
2022-11-24T10:49:18.493Z,11.30
2022-11-24T10:52:11.807Z,11.40
2022-11-24T10:54:56.484Z,11.50
2022-11-24T10:57:34.747Z,11.60
2022-11-24T11:00:04.806Z,11.70
2022-11-24T11:02:38.380Z,11.70
2022-11-24T11:05:27.283Z,11.80
2022-11-24T11:08:10.917Z,11.90
2022-11-24T11:10:37.916Z,11.90
2022-11-24T11:13:29.438Z,12.00
2022-11-24T11:15:58.061Z,12.10
2022-11-24T11:18:33.354Z,12.20
2022-11-24T11:21:02.454Z,12.20
2022-11-24T11:23:35.242Z,12.30
2022-11-24T11:26:19.843Z,12.50
2022-11-24T11:34:51.929Z,12.70
2022-11-24T11:37:19.898Z,12.70
2022-11-24T11:39:49.752Z,12.80
2022-11-24T11:42:53.897Z,12.90
2022-11-24T11:45:21.588Z,12.90
2022-11-24T11:47:57.337Z,13.10
2022-11-24T11:51:21.177Z,13.20
2022-11-24T11:53:46.483Z,13.20
2022-11-24T11:56:36.814Z,13.30
2022-11-24T11:59:16.612Z,13.40
2022-11-24T12:01:55.424Z,13.50
2022-11-24T12:04:34.138Z,13.60
2022-11-24T12:07:30.185Z,13.70
2022-11-24T12:10:12.768Z,13.70
2022-11-24T12:13:01.416Z,13.80
2022-11-24T12:15:34.876Z,13.90
2022-11-24T12:18:59.030Z,14.00
2022-11-24T12:21:35.828Z,14.00
2022-11-24T12:24:06.055Z,14.10
2022-11-24T12:26:50.595Z,14.20
2022-11-24T12:29:42.495Z,14.20
2022-11-24T12:32:28.179Z,14.30
2022-11-24T12:35:03.948Z,14.40
2022-11-24T12:37:51.503Z,14.50
2022-11-24T12:40:42.150Z,14.50
2022-11-24T12:43:27.423Z,14.60
2022-11-24T12:46:01.840Z,14.60
2022-11-24T12:48:47.255Z,14.70
2022-11-24T12:51:24.618Z,14.70
2022-11-24T12:53:53.585Z,14.70
2022-11-24T12:56:45.330Z,14.80
2022-11-24T12:59:43.855Z,14.80
2022-11-24T13:02:16.638Z,14.90
2022-11-24T13:04:51.335Z,14.90
2022-11-24T13:07:38.294Z,15.00
2022-11-24T13:10:46.547Z,15.00
2022-11-24T13:13:12.559Z,15.00
2022-11-24T13:18:53.995Z,15.10
2022-11-24T13:21:50.984Z,15.10
2022-11-24T13:24:18.670Z,15.10
2022-11-24T13:26:49.536Z,15.10
2022-11-24T13:29:28.026Z,15.20
2022-11-24T13:31:55.854Z,15.20
2022-11-24T13:34:47.003Z,15.20
2022-11-24T13:37:31.869Z,15.20
2022-11-24T13:40:22.913Z,15.20
2022-11-24T13:42:56.328Z,15.20
2022-11-24T13:45:49.473Z,15.20
2022-11-24T13:48:19.079Z,15.20
2022-11-24T13:50:53.161Z,15.20
2022-11-24T13:53:38.445Z,15.20
2022-11-24T13:56:14.131Z,15.20
2022-11-24T13:58:44.107Z,15.10
2022-11-24T14:01:28.384Z,15.10
2022-11-24T14:04:30.642Z,15.10
2022-11-24T14:07:07.799Z,15.00
2022-11-24T14:09:48.003Z,15.00
2022-11-24T14:12:19.035Z,14.90
2022-11-24T14:14:47.877Z,14.90
2022-11-24T14:17:17.278Z,14.90
2022-11-24T14:19:46.520Z,14.80
2022-11-24T14:22:19.341Z,14.70
2022-11-24T14:24:52.718Z,14.70
2022-11-24T14:27:26.342Z,14.60
2022-11-24T14:29:59.293Z,14.60
2022-11-24T14:32:26.003Z,14.60
2022-11-24T14:34:54.076Z,14.50
2022-11-24T14:37:20.984Z,14.50
2022-11-24T14:39:47.747Z,14.40
2022-11-24T14:42:23.187Z,14.30
2022-11-24T14:45:00.916Z,14.30
2022-11-24T14:47:32.882Z,14.20
2022-11-24T14:50:16.520Z,14.20
2022-11-24T14:52:55.409Z,14.10
2022-11-24T14:55:35.197Z,14.10
2022-11-24T14:58:01.871Z,14.00
2022-11-24T15:00:32.837Z,13.90
2022-11-24T15:03:02.809Z,13.90
2022-11-24T15:05:58.815Z,13.80
2022-11-24T15:08:27.935Z,13.80
2022-11-24T15:11:03.309Z,13.70
2022-11-24T15:13:37.391Z,13.70
2022-11-24T15:16:08.498Z,13.60
2022-11-24T15:18:47.608Z,13.60
2022-11-24T15:21:19.229Z,13.50
2022-11-24T15:24:06.246Z,13.40
2022-11-24T15:26:38.253Z,13.40
2022-11-24T15:29:08.259Z,13.40
2022-11-24T15:31:34.935Z,13.20
2022-11-24T15:34:01.724Z,13.20
2022-11-24T15:36:28.398Z,13.20
2022-11-24T15:38:55.063Z,13.10
2022-11-24T15:41:27.971Z,13.10
2022-11-24T15:43:59.052Z,13.10
2022-11-24T15:46:37.844Z,13.00
2022-11-24T15:49:05.233Z,12.90
2022-11-24T15:51:32.026Z,12.90
2022-11-24T15:54:00.998Z,12.80
2022-11-24T15:56:34.139Z,12.70
2022-11-24T15:59:01.948Z,12.70
2022-11-24T16:01:33.847Z,12.70
2022-11-24T16:04:01.622Z,12.60
2022-11-24T16:06:28.278Z,12.60
2022-11-24T16:08:55.411Z,12.50
2022-11-24T16:11:22.982Z,12.50
2022-11-24T16:13:53.238Z,12.40
2022-11-24T16:16:22.007Z,12.40
2022-11-24T16:18:48.716Z,12.30
2022-11-24T16:21:15.412Z,12.30
2022-11-24T16:23:42.268Z,12.20
2022-11-24T16:26:10.250Z,12.20
2022-11-24T16:28:36.988Z,12.10
2022-11-24T16:31:04.129Z,12.10
2022-11-24T16:33:31.026Z,12.10
2022-11-24T16:37:37.685Z,12.00
2022-11-24T16:39:20.236Z,12.00
2022-11-24T16:42:01.048Z,11.90
2022-11-24T16:44:29.015Z,11.90
2022-11-24T16:46:57.908Z,11.80
2022-11-24T16:49:27.160Z,11.80
2022-11-24T16:52:02.345Z,11.70
2022-11-24T16:54:28.978Z,11.70
2022-11-24T16:56:55.659Z,11.70
2022-11-24T16:59:22.319Z,11.70
2022-11-24T17:01:50.729Z,11.60
2022-11-24T17:04:17.919Z,11.60
2022-11-24T17:06:44.879Z,11.50
2022-11-24T17:09:11.602Z,11.50
2022-11-24T17:11:38.386Z,11.50
2022-11-24T17:14:04.987Z,11.40
2022-11-24T17:16:31.853Z,11.40
2022-11-24T17:18:58.799Z,11.40
2022-11-24T17:21:27.319Z,11.40
2022-11-24T17:23:55.720Z,11.40
2022-11-24T17:26:23.202Z,11.40
2022-11-24T17:28:49.862Z,11.30
2022-11-24T17:31:37.058Z,11.30
2022-11-24T17:34:05.763Z,11.30
2022-11-24T17:36:34.653Z,11.20
2022-11-24T17:39:04.517Z,11.20
2022-11-24T17:41:32.206Z,11.20
2022-11-24T17:43:59.130Z,11.20
2022-11-24T17:46:27.785Z,11.20
2022-11-24T17:48:54.587Z,11.20
2022-11-24T17:51:23.358Z,11.20
2022-11-24T17:53:52.050Z,11.20
2022-11-24T17:56:24.007Z,11.10
2022-11-24T17:58:55.617Z,11.10
2022-11-24T18:01:23.269Z,11.10
2022-11-24T18:03:53.418Z,11.10
2022-11-24T18:06:20.877Z,11.10
2022-11-24T18:08:48.326Z,11.10
2022-11-24T18:11:23.545Z,11.10
2022-11-24T18:14:00.275Z,11.00
2022-11-24T18:16:30.225Z,11.00
2022-11-24T18:19:14.339Z,11.00
2022-11-24T18:21:42.124Z,10.90
2022-11-24T18:24:09.840Z,10.90
2022-11-24T18:26:36.834Z,10.90
2022-11-24T18:29:04.359Z,10.90
2022-11-24T18:31:32.238Z,10.90
2022-11-24T18:33:59.662Z,10.80
2022-11-24T18:36:30.188Z,10.80
2022-11-24T18:39:01.932Z,10.80
2022-11-24T18:41:28.767Z,10.80
2022-11-24T18:43:55.483Z,10.80
2022-11-24T18:46:22.350Z,10.80
2022-11-24T18:48:51.355Z,10.70
2022-11-24T18:51:18.615Z,10.70
2022-11-24T18:53:46.304Z,10.70
2022-11-24T18:56:15.692Z,10.70
2022-11-24T18:58:42.700Z,10.70
2022-11-24T19:01:18.217Z,10.70
2022-11-24T19:03:49.018Z,10.70
2022-11-24T19:06:19.434Z,10.70
2022-11-24T19:08:47.854Z,10.70
2022-11-24T19:11:23.141Z,10.60
2022-11-24T19:13:50.644Z,10.60
2022-11-24T19:16:19.252Z,10.60
2022-11-24T19:18:51.884Z,10.60
2022-11-24T19:21:20.382Z,10.60
2022-11-24T19:23:47.023Z,10.60
2022-11-24T19:26:13.714Z,10.60
2022-11-24T19:28:40.355Z,10.60
2022-11-24T19:31:10.505Z,10.60
2022-11-24T19:33:37.199Z,10.50
2022-11-24T19:36:08.763Z,10.50
2022-11-24T19:38:39.864Z,10.50
2022-11-24T19:41:12.391Z,10.50
2022-11-24T19:43:40.196Z,10.50
2022-11-24T19:46:09.181Z,10.50
2022-11-24T19:48:41.498Z,10.40
2022-11-24T19:51:11.382Z,10.50
2022-11-24T19:53:38.179Z,10.50
2022-11-24T19:56:06.585Z,10.40
2022-11-24T19:58:33.837Z,10.40
2022-11-24T20:01:10.555Z,10.40
2022-11-24T20:03:38.516Z,10.40
2022-11-24T20:06:06.790Z,10.40
2022-11-24T20:08:35.203Z,10.40
2022-11-24T20:11:03.800Z,10.40
2022-11-24T20:13:31.031Z,10.40
2022-11-24T20:16:06.322Z,10.40
2022-11-24T20:18:37.583Z,10.40
2022-11-24T20:21:13.505Z,10.40
2022-11-24T20:23:40.571Z,10.40
2022-11-24T20:26:13.422Z,10.40
2022-11-24T20:28:40.981Z,10.30
2022-11-24T20:31:13.727Z,10.40
2022-11-24T20:33:40.791Z,10.40
2022-11-24T20:36:08.903Z,10.40
2022-11-24T20:38:36.818Z,10.30
2022-11-24T20:41:09.353Z,10.40
2022-11-24T20:43:37.387Z,10.30
2022-11-24T20:46:12.639Z,10.40
2022-11-24T20:48:39.815Z,10.30
2022-11-24T20:51:09.850Z,10.40
2022-11-24T20:53:37.319Z,10.30
2022-11-24T20:56:06.765Z,10.40
2022-11-24T20:58:35.156Z,10.30
2022-11-24T21:01:09.514Z,10.40
2022-11-24T21:03:42.603Z,10.40
2022-11-24T21:06:12.073Z,10.40
2022-11-24T21:08:40.544Z,10.40
2022-11-24T21:11:08.694Z,10.40
2022-11-24T21:13:36.517Z,10.40
2022-11-24T21:16:17.991Z,10.40
2022-11-24T21:18:46.480Z,10.40
2022-11-24T21:21:14.306Z,10.40
2022-11-24T21:23:41.088Z,10.40
2022-11-24T21:26:14.906Z,10.40
2022-11-24T21:28:44.867Z,10.40
2022-11-24T21:31:14.971Z,10.40
2022-11-24T21:33:43.214Z,10.40
2022-11-24T21:36:09.948Z,10.40
2022-11-24T21:38:36.623Z,10.40
2022-11-24T21:41:05.839Z,10.40
2022-11-24T21:43:33.310Z,10.40
2022-11-24T21:46:05.822Z,10.40
2022-11-24T21:48:33.534Z,10.40
2022-11-24T21:51:02.069Z,10.50
2022-11-24T21:53:34.800Z,10.50
2022-11-24T21:56:07.300Z,10.50
2022-11-24T21:58:34.369Z,10.50
2022-11-24T22:01:02.995Z,10.50
2022-11-24T22:03:29.986Z,10.50
2022-11-24T22:05:58.714Z,10.50
2022-11-24T22:08:26.875Z,10.50
2022-11-24T22:10:54.102Z,10.50
2022-11-24T22:13:20.886Z,10.50
2022-11-24T22:15:47.528Z,10.50
2022-11-24T22:18:14.228Z,10.50
2022-11-24T22:20:40.826Z,10.50
2022-11-24T22:23:07.519Z,10.60
2022-11-24T22:25:34.339Z,10.60
2022-11-24T22:28:01.108Z,10.60
2022-11-24T22:30:27.816Z,10.60
2022-11-24T22:32:54.568Z,10.60
2022-11-24T22:35:22.052Z,10.60
2022-11-24T22:37:48.731Z,10.60
2022-11-24T22:40:15.435Z,10.60
2022-11-24T22:42:42.086Z,10.60
2022-11-24T22:45:09.254Z,10.60
2022-11-24T22:47:35.952Z,10.60
2022-11-24T22:50:02.639Z,10.70
2022-11-24T22:52:29.334Z,10.60
2022-11-24T22:54:56.029Z,10.60
2022-11-24T22:57:22.647Z,10.60
2022-11-24T22:59:49.307Z,10.70
2022-11-24T23:02:15.984Z,10.70
2022-11-24T23:04:42.604Z,10.70
2022-11-24T23:07:09.527Z,10.70
2022-11-24T23:09:36.191Z,10.70
2022-11-24T23:12:02.888Z,10.70
2022-11-24T23:14:29.694Z,10.70
2022-11-24T23:16:56.341Z,10.70
2022-11-24T23:19:22.950Z,10.70
2022-11-24T23:21:49.599Z,10.70
2022-11-24T23:24:16.350Z,10.70
2022-11-24T23:26:43.022Z,10.70
2022-11-24T23:29:10.897Z,10.70
2022-11-24T23:31:40.049Z,10.70
2022-11-24T23:34:07.179Z,10.70
2022-11-24T23:36:33.969Z,10.70
2022-11-24T23:39:13.116Z,10.70
2022-11-24T23:41:39.968Z,10.70
2022-11-24T23:44:07.163Z,10.70
2022-11-24T23:46:33.861Z,10.80
2022-11-24T23:49:00.616Z,10.80
2022-11-24T23:51:31.999Z,10.80
2022-11-24T23:53:59.979Z,10.70
2022-11-24T23:56:33.292Z,10.80
2022-11-24T23:59:01.663Z,10.80
